Novato, CA (94947)

8:29 AM PDT on August 27, 2014 (GMT -0700)
Pleasant Valley | Change Station
CLOSE
Current Station
Personal Weather Station
Location: Novato, CA
Elevation: 213 ft
Nearby Weather Stations

Elev 213 ft 38.11 °N, 122.61 °W | Updated 7 minutes ago

Clear
Clear
58.3 °F
Feels Like 58.3 °F
N
3.0
Wind Variable Wind from NNW
Gusts 3.0 mph

Today
High -- | Low -- °F
--% Chance of Precip.
Yesterday
High -- | Low -- °F
Precip. -- in
6:35 AM 7:47 PM
Waxing Crescent, 4% visible
Pressure 30.01 in
Visibility 8.0 miles
Clouds Clear
Dew Point 55 °F
Humidity 89%
Rainfall 0.00 in
Snow Depth Not available.
UV 0 out of 12
Pollen 7.00 out of 12
PM2.5 Good
Flu Activity Not available.
METAR KAPC 271354Z AUTO 00000KT 8SM CLR 12/12 A3004 RMK AO2 SLP163 T01220122

More Conditions Fewer Conditions

Pressure 30.01 in
Visibility 8.0 miles
Clouds Clear
Dew Point 55 °F
Humidity 89%
Rainfall 0.00 in
Snow Depth Not available.
UV 0 out of 12
Pollen 7.00 out of 12
PM2.5 Good
Flu Activity Not available.
METAR KAPC 271354Z AUTO 00000KT 8SM CLR 12/12 A3004 RMK AO2 SLP163 T01220122

More Conditions Fewer Conditions

10-Day Weather Forecast

Almanac

Astronomy

Aug. 27, 2014 Rise Set
Actual Time 6:35 AM PDT 7:47 PM PDT
Civil Twilight 6:08 AM PDT 8:14 PM PDT
Nautical Twilight 5:36 AM PDT 8:46 PM PDT
Astronomical Twilight 5:02 AM PDT 9:20 PM PDT
Moon 8:34 AM PDT 8:45 PM PDT
Length of Visible Light 14h 05m
Length of Day
13h 11m
Tomorrow will be 2m 19s shorter.
Waxing Crescent, 4% of the Moon is Illuminated
Today
Waxing Crescent
Sep 2
First Quarter
Sep 8
Full
Sep 15
Last Quarter
Sep 24
New

Today's Extremes

State Highs State Lows

Community

WunderPhotos

Upload Photos

1,747,708 photos uploaded!

Nearby

Air Quality

  Air Quality AQ Index Pollutant
Yesterday Good
PM2.5
Yesterday Good
OZONE
Current Good
PM2.5
Wednesday Good
PM2.5
Thursday Good
PM2.5
Friday Good
PM2.5
Saturday Good
PM2.5
Sunday Good
PM2.5

Snow Depth

Station Depth Elevation
Echo Peak 1 in 7800 ft
CSS Lab 3 in 6900 ft
Rubicon #2 0 in 7500 ft
Forestdale Creek 0 in 8029 ft
Fallen Leaf 0 in 6300 ft

Earthquake Activity

City Distance Mag. Time & Date
The Geysers, California 50 miles 2.6 7:42 AM PDT
2014-08-27
Soledad, California 136 miles 2.6 12:15 PM PDT
2014-08-26
Napa, California 17 miles 2.5 10:56 AM PDT
2014-08-26
Napa, California 17 miles 3.0 6:45 AM PDT
2014-08-26
Minimum magnitude displayed is 2.5.

Coastal Water Temperatures

Place Temperature
San Francisco, CA 64.9 °F
Richmond, CA 66.9 °F
Port Chicago, CA 68.0 °F

Nearby Weather Stations